This is the latest recevied weather packets stored in our database for station/object SP8EBC-11. If no packets are shown the sender has not sent any weather packets the latest 1 day(s).
| Time | Temp. | Humidity | Pressure | Rain* | Wind** | Luminosity | Snow |
|---|---|---|---|---|---|---|---|
| 1777945250 | 12.78° C | 68% | 995.6 hPa | - | 1.34 m/s, 272° | - | - |
| 1777945128 | 12.78° C | 68% | 995.5 hPa | - | 1.34 m/s, 284° | - | - |
| 1777945008 | 12.78° C | 68% | 995.5 hPa | - | 0.45 m/s, 53° | - | - |
| 1777944889 | 12.78° C | 68% | 995.4 hPa | - | 0.45 m/s, 65° | - | - |
| 1777944768 | 12.78° C | 68% | 995.3 hPa | - | 0.45 m/s, 65° | - | - |
| 1777944648 | 12.78° C | 68% | 995.2 hPa | - | 0.45 m/s, 63° | - | - |
| 1777944528 | 12.78° C | 68% | 995.2 hPa | - | 0.45 m/s, 63° | - | - |
| 1777944408 | 12.78° C | 68% | 995.2 hPa | - | 0 m/s | - | - |
| 1777944289 | 12.78° C | 68% | 995.2 hPa | - | 0.45 m/s, 63° | - | - |
| 1777944168 | 12.78° C | 68% | 995.2 hPa | - | 0.89 m/s, 59° | - | - |
| 1777944048 | 12.78° C | 67% | 995.2 hPa | - | 0.89 m/s, 30° | - | - |
| 1777943928 | 12.78° C | 67% | 995.3 hPa | - | 0.45 m/s, 24° | - | - |
| 1777943807 | 12.78° C | 67% | 995.4 hPa | - | 0.45 m/s, 21° | - | - |
| 1777943687 | 12.78° C | 67% | 995.4 hPa | - | 0.45 m/s, 21° | - | - |
| 1777943567 | 12.78° C | 67% | 995.4 hPa | - | 0.45 m/s, 21° | - | - |
| 1777943448 | 12.78° C | 67% | 995.4 hPa | - | 0.89 m/s, 21° | - | - |
| 1777943327 | 12.78° C | 67% | 995.4 hPa | - | 0.89 m/s, 21° | - | - |
| 1777943207 | 12.78° C | 67% | 995.4 hPa | - | 0.89 m/s, 24° | - | - |
| 1777943087 | 12.78° C | 67% | 995.4 hPa | - | 0.89 m/s, 21° | - | - |
| 1777942967 | 12.78° C | 67% | 995.3 hPa | - | 1.34 m/s, 24° | - | - |
| 1777942848 | 12.78° C | 67% | 995.3 hPa | - | 1.34 m/s, 21° | - | - |
| 1777942727 | 12.78° C | 67% | 995.2 hPa | - | 1.34 m/s, 13° | - | - |
| 1777942607 | 12.78° C | 67% | 995.1 hPa | - | 0.89 m/s, 35° | - | - |
| 1777942487 | 13.33° C | 67% | 995.1 hPa | - | 0.89 m/s, 56° | - | - |
| 1777942369 | 13.33° C | 67% | 995 hPa | - | 0.45 m/s, 56° | - | - |
* Rain since midnight (hover to see other rain measurements)
** Current wind speed in m/s (hover to see current wind gust speed)